Latest METARs, TAFs and NOTAMs for WADD


---------------------------------------------------------------------------
	(OBSERVATIONS)
Sorry, no metar available for WADD
---------------------------------------------------------------------------
	(TERMINAL AREA FORECAST)
WADD 151700Z 1518/1618 14015KT 9999 SCT016
    TEMPO 1518/1522 5000 RA BKN014=
---------------------------------------------------------------------------
	(NOTAMS)


WADD A2685/22 TRIGGER NOTAM-PERM AIRAC AIP AMDT 124 WEF 01 DEC
    2022 CHANGES INFORMATION OF I GUSTI NGURAH RAI INTERNATIONAL
    AIRPORT - BALI. 01 DEC 00:00 2022 UNTIL 14 DEC 23:59 2022.
    CREATED: 24 OCT 05:08 2022

WADD A2686/22 TRIGGER NOTAM - AIRAC AIP SUPP NR 30/22 WEF 01
    DEC 2022 THE CLOSURE OF AIRCRAFT STANDS AT I GUSTI NGURAH
    RAI INTERNATIONAL AIRPORT - BALI. 01 DEC 00:00 2022 UNTIL
    14 DEC 23:59 2022. CREATED: 24 OCT 05:31 2022

---------------------------------------------------------------------------